createdAt,value
2018-05-31T00:00:55.967Z,20.50
2018-05-31T00:04:58.557Z,20.30
2018-05-31T00:09:01.911Z,20.20
2018-05-31T00:13:04.435Z,20.10
2018-05-31T00:17:08.031Z,20.10
2018-05-31T00:21:10.825Z,20.10
2018-05-31T00:25:13.465Z,19.90
2018-05-31T00:29:16.279Z,19.80
2018-05-31T00:33:20.017Z,20.00
2018-05-31T00:37:22.847Z,19.90
2018-05-31T00:41:26.254Z,19.90
2018-05-31T00:45:29.054Z,19.90
2018-05-31T00:49:31.709Z,19.90
2018-05-31T00:53:34.251Z,19.80
2018-05-31T00:57:37.575Z,19.50
2018-05-31T01:01:41.262Z,19.60
2018-05-31T01:05:45.529Z,19.70
2018-05-31T01:09:48.712Z,19.70
2018-05-31T01:13:51.821Z,19.80
2018-05-31T01:17:54.546Z,19.90
2018-05-31T01:21:57.364Z,19.70
2018-05-31T01:26:00.182Z,19.70
2018-05-31T01:30:02.752Z,19.80
2018-05-31T01:34:11.203Z,19.70
2018-05-31T01:38:25.724Z,19.80
2018-05-31T01:42:28.326Z,19.90
2018-05-31T01:46:30.894Z,19.70
2018-05-31T01:50:33.443Z,19.60
2018-05-31T01:54:36.059Z,19.50
2018-05-31T01:58:38.603Z,19.60
2018-05-31T02:02:42.147Z,19.50
2018-05-31T02:06:46.301Z,19.70
2018-05-31T02:10:49.380Z,19.60
2018-05-31T02:14:54.042Z,19.70
2018-05-31T02:18:56.882Z,19.90
2018-05-31T02:22:59.414Z,19.90
2018-05-31T02:27:02.794Z,19.80
2018-05-31T02:31:05.343Z,19.70
2018-05-31T02:35:08.022Z,19.70
2018-05-31T02:39:12.769Z,19.90
2018-05-31T02:43:16.914Z,20.00
2018-05-31T02:47:19.692Z,20.00
2018-05-31T02:51:22.941Z,20.00
2018-05-31T02:55:27.275Z,20.00
2018-05-31T02:59:30.772Z,19.80
2018-05-31T03:03:41.536Z,19.80
2018-05-31T03:07:44.597Z,19.70
2018-05-31T03:11:47.386Z,19.60
2018-05-31T03:15:51.280Z,19.70
2018-05-31T03:19:54.314Z,19.70
2018-05-31T03:23:57.230Z,19.80
2018-05-31T03:27:59.776Z,19.90
2018-05-31T03:32:02.487Z,20.00
2018-05-31T03:36:05.031Z,19.90
2018-05-31T03:40:08.354Z,20.00
2018-05-31T03:44:11.797Z,20.00
2018-05-31T03:48:14.922Z,19.90
2018-05-31T03:52:17.896Z,20.00
2018-05-31T03:56:21.651Z,20.10
2018-05-31T04:00:25.701Z,20.10
2018-05-31T04:04:29.174Z,20.10
2018-05-31T04:08:33.743Z,20.00
2018-05-31T04:12:36.303Z,20.10
2018-05-31T04:16:39.025Z,20.10
2018-05-31T04:20:41.899Z,20.10
2018-05-31T04:24:45.137Z,20.20
2018-05-31T04:28:49.023Z,20.20
2018-05-31T04:32:51.700Z,20.10
2018-05-31T04:36:55.427Z,20.30
2018-05-31T04:40:57.990Z,20.20
2018-05-31T04:45:00.561Z,20.30
2018-05-31T04:49:03.099Z,20.40
2018-05-31T04:53:05.671Z,20.50
2018-05-31T04:57:08.206Z,20.40
2018-05-31T05:01:10.808Z,20.40
2018-05-31T05:05:14.115Z,20.70
2018-05-31T05:09:17.158Z,20.70
2018-05-31T05:13:20.009Z,20.70
2018-05-31T05:17:22.774Z,20.70
2018-05-31T05:21:26.811Z,20.70
2018-05-31T05:25:29.850Z,20.70
2018-05-31T05:29:37.531Z,20.60
2018-05-31T05:33:40.462Z,20.70
2018-05-31T05:37:43.898Z,20.90
2018-05-31T05:41:48.524Z,21.10
2018-05-31T05:45:52.373Z,21.00
2018-05-31T05:49:55.104Z,21.30
2018-05-31T05:53:58.218Z,21.30
2018-05-31T05:58:01.261Z,21.50
2018-05-31T06:02:03.809Z,21.50
2018-05-31T06:06:10.215Z,21.60
2018-05-31T06:10:13.590Z,21.80
2018-05-31T06:14:17.498Z,22.70
2018-05-31T06:18:20.703Z,23.60
2018-05-31T06:22:25.039Z,24.10
2018-05-31T06:26:27.642Z,25.00
2018-05-31T06:30:30.290Z,25.60
2018-05-31T06:34:37.237Z,26.10
2018-05-31T06:38:40.182Z,27.10
2018-05-31T06:42:44.496Z,27.90
2018-05-31T06:46:49.678Z,28.60
2018-05-31T06:50:52.982Z,29.10
2018-05-31T06:54:59.332Z,29.50
2018-05-31T06:59:01.869Z,29.80
2018-05-31T07:03:04.432Z,30.40
2018-05-31T07:07:07.722Z,30.70
2018-05-31T07:11:10.274Z,30.60
2018-05-31T07:15:12.823Z,31.30
2018-05-31T07:19:17.745Z,31.10
2018-05-31T07:23:20.774Z,31.10
2018-05-31T07:27:23.801Z,30.80
2018-05-31T07:31:27.655Z,29.50
2018-05-31T07:35:30.224Z,29.40
2018-05-31T07:39:32.768Z,29.00
2018-05-31T07:43:35.334Z,28.60
2018-05-31T07:47:37.883Z,28.00
2018-05-31T07:51:40.452Z,27.80
2018-05-31T07:55:45.920Z,27.90
2018-05-31T07:59:51.786Z,27.80
2018-05-31T08:03:55.545Z,28.30
2018-05-31T08:08:02.406Z,29.00
2018-05-31T08:12:05.699Z,29.70
2018-05-31T08:16:08.255Z,29.60
2018-05-31T08:20:12.552Z,30.50
2018-05-31T08:24:16.974Z,30.40
2018-05-31T08:28:21.211Z,31.00
2018-05-31T08:32:24.381Z,30.90
2018-05-31T08:36:27.604Z,31.10
2018-05-31T08:40:30.158Z,31.00
2018-05-31T08:44:36.756Z,31.30
2018-05-31T08:48:39.279Z,31.80
2018-05-31T08:52:51.326Z,32.50
2018-05-31T08:56:55.244Z,32.30
2018-05-31T09:01:00.817Z,31.70
2018-05-31T09:05:04.000Z,31.60
2018-05-31T09:09:06.543Z,31.10
2018-05-31T09:17:29.120Z,29.70
2018-05-31T09:21:32.604Z,29.30
2018-05-31T09:25:36.925Z,30.00
2018-05-31T09:29:40.526Z,30.20
2018-05-31T09:33:43.282Z,30.10
2018-05-31T09:37:47.196Z,29.90
2018-05-31T09:41:51.141Z,29.30
2018-05-31T09:45:57.359Z,28.10
2018-05-31T09:50:00.660Z,27.70
2018-05-31T09:54:03.359Z,27.60
2018-05-31T09:58:14.162Z,27.40
2018-05-31T10:02:18.791Z,27.70
2018-05-31T10:06:24.283Z,27.90
2018-05-31T10:10:27.753Z,27.90
2018-05-31T10:14:31.067Z,27.90
2018-05-31T10:18:33.622Z,27.90
2018-05-31T10:22:36.164Z,28.00
2018-05-31T10:26:38.931Z,28.60
2018-05-31T10:30:41.491Z,29.10
2018-05-31T10:34:45.626Z,28.70
2018-05-31T10:38:50.713Z,28.70
2018-05-31T10:43:39.852Z,28.20
2018-05-31T10:47:46.864Z,28.10
2018-05-31T10:51:51.062Z,28.40
2018-05-31T10:55:53.957Z,28.40
2018-05-31T10:59:57.109Z,28.80
2018-05-31T11:04:00.459Z,28.10
2018-05-31T11:08:03.161Z,28.10
2018-05-31T11:12:07.399Z,27.80
2018-05-31T11:16:10.414Z,27.40
2018-05-31T11:20:14.061Z,26.90
2018-05-31T11:24:23.716Z,26.90
2018-05-31T11:28:26.474Z,26.80
2018-05-31T11:32:34.838Z,26.50
2018-05-31T11:36:37.356Z,26.40
2018-05-31T11:40:41.906Z,26.50
2018-05-31T11:44:45.198Z,26.50
2018-05-31T11:48:50.207Z,26.40
2018-05-31T11:52:52.829Z,26.40
2018-05-31T11:56:55.753Z,26.20
2018-05-31T12:00:58.508Z,26.20
2018-05-31T12:05:01.143Z,26.00
2018-05-31T12:09:06.435Z,25.80
2018-05-31T12:13:09.999Z,25.70
2018-05-31T12:17:13.477Z,25.70
2018-05-31T12:21:16.340Z,25.60
2018-05-31T12:25:24.606Z,25.60
2018-05-31T12:29:28.326Z,25.60
2018-05-31T12:33:34.710Z,25.50
2018-05-31T12:37:37.634Z,25.50
2018-05-31T12:41:40.287Z,25.50
2018-05-31T12:45:43.732Z,25.80
2018-05-31T12:50:00.710Z,26.10
2018-05-31T12:54:05.955Z,26.30
2018-05-31T12:58:10.668Z,26.30
2018-05-31T13:02:14.514Z,26.40
2018-05-31T13:06:30.924Z,25.80
2018-05-31T13:10:35.031Z,25.80
2018-05-31T13:14:38.483Z,25.70
2018-05-31T13:18:42.051Z,25.70
2018-05-31T13:22:45.315Z,25.90
2018-05-31T13:26:49.889Z,26.00
2018-05-31T13:31:04.602Z,26.00
2018-05-31T13:35:31.604Z,26.20
2018-05-31T13:39:35.050Z,26.20
2018-05-31T13:43:38.018Z,26.00
2018-05-31T13:47:41.311Z,25.90
2018-05-31T13:51:44.776Z,25.90
2018-05-31T13:55:53.802Z,25.70
2018-05-31T13:59:59.191Z,25.60
2018-05-31T14:04:02.687Z,25.60
2018-05-31T14:08:05.326Z,25.50
2018-05-31T14:12:11.707Z,25.40
2018-05-31T14:16:20.709Z,25.40
2018-05-31T14:20:26.141Z,25.50
2018-05-31T14:24:29.807Z,25.60
2018-05-31T14:28:32.343Z,25.60
2018-05-31T14:32:35.976Z,25.70
2018-05-31T14:36:39.304Z,25.80
2018-05-31T14:40:42.928Z,25.80
2018-05-31T14:44:46.800Z,26.00
2018-05-31T14:48:53.324Z,25.90
2018-05-31T14:52:59.312Z,26.10
2018-05-31T14:57:01.885Z,26.00
2018-05-31T15:01:04.414Z,26.00
2018-05-31T15:05:06.988Z,25.90
2018-05-31T15:09:14.095Z,25.90
2018-05-31T15:13:21.695Z,25.90
2018-05-31T15:17:27.415Z,25.70
2018-05-31T15:21:30.461Z,25.70
2018-05-31T15:25:33.763Z,25.70
2018-05-31T15:29:36.320Z,25.60
2018-05-31T15:33:38.847Z,25.80
2018-05-31T15:37:41.574Z,25.80
2018-05-31T15:41:44.164Z,25.90
2018-05-31T15:45:48.909Z,26.10
2018-05-31T15:49:52.917Z,26.20
2018-05-31T15:53:56.394Z,26.30
2018-05-31T15:57:59.362Z,26.30
2018-05-31T16:02:01.931Z,26.10
2018-05-31T16:06:04.454Z,26.10
2018-05-31T16:10:07.172Z,26.20
2018-05-31T16:14:09.690Z,26.30
2018-05-31T16:18:13.916Z,26.20
2018-05-31T16:22:26.250Z,26.20
2018-05-31T16:26:36.909Z,26.10
2018-05-31T16:30:39.629Z,26.10
2018-05-31T16:34:42.170Z,25.90
2018-05-31T16:42:58.762Z,26.00
2018-05-31T16:47:02.934Z,26.10
2018-05-31T16:51:05.505Z,26.20
2018-05-31T16:55:11.875Z,25.90
2018-05-31T16:59:21.842Z,25.70
2018-05-31T17:03:41.321Z,25.60
2018-05-31T17:07:55.913Z,25.60
2018-05-31T17:12:01.787Z,25.60
2018-05-31T17:16:04.831Z,25.60
2018-05-31T17:24:38.835Z,25.40
2018-05-31T17:29:00.862Z,25.40
2018-05-31T17:33:05.277Z,25.30
2018-05-31T17:37:26.611Z,25.10
2018-05-31T17:41:29.164Z,25.10
2018-05-31T17:45:32.888Z,25.00
2018-05-31T17:58:38.473Z,24.90
2018-05-31T18:02:44.297Z,24.80
2018-05-31T18:07:08.733Z,24.80
2018-05-31T18:11:12.339Z,24.80
2018-05-31T18:19:41.040Z,24.80
2018-05-31T18:23:43.764Z,24.70
2018-05-31T18:27:53.770Z,24.70
2018-05-31T18:31:56.835Z,24.60
2018-05-31T18:36:00.307Z,24.60
2018-05-31T18:40:03.782Z,24.50
2018-05-31T18:44:21.755Z,24.40
2018-05-31T18:48:29.738Z,24.50
2018-05-31T18:52:56.659Z,24.50
2018-05-31T18:57:02.213Z,24.50
2018-05-31T19:01:10.149Z,24.40
2018-05-31T19:05:13.263Z,24.40
2018-05-31T19:13:48.724Z,24.10
2018-05-31T19:17:57.274Z,23.80
2018-05-31T19:22:00.077Z,23.80
2018-05-31T19:26:13.079Z,23.80
2018-05-31T19:34:34.752Z,23.80
2018-05-31T19:38:48.349Z,23.70
2018-05-31T19:43:00.290Z,23.60
2018-05-31T19:47:03.443Z,23.60
2018-05-31T19:51:05.994Z,23.50
2018-05-31T19:55:08.919Z,23.40
2018-05-31T19:59:18.630Z,23.40
2018-05-31T20:03:27.550Z,23.40
2018-05-31T20:07:30.292Z,23.30
2018-05-31T20:11:32.953Z,23.20
2018-05-31T20:15:36.436Z,23.00
2018-05-31T20:19:39.227Z,23.00
2018-05-31T20:23:41.925Z,22.90
2018-05-31T20:27:45.716Z,22.90
2018-05-31T20:31:48.688Z,22.90
2018-05-31T20:35:53.632Z,22.90
2018-05-31T20:39:56.348Z,22.80
2018-05-31T20:44:01.288Z,22.80
2018-05-31T20:48:07.725Z,22.70
2018-05-31T20:52:10.668Z,22.60
2018-05-31T20:56:16.509Z,22.50
2018-05-31T21:00:19.541Z,22.40
2018-05-31T21:04:23.177Z,22.30
2018-05-31T21:08:26.445Z,22.20
2018-05-31T21:12:29.032Z,22.20
2018-05-31T21:16:31.639Z,22.10
2018-05-31T21:20:34.967Z,21.90
2018-05-31T21:24:38.313Z,21.90
2018-05-31T21:28:41.063Z,21.90
2018-05-31T21:32:44.587Z,21.80
2018-05-31T21:36:47.426Z,21.70
2018-05-31T21:40:51.125Z,21.80
2018-05-31T21:44:55.480Z,21.70
2018-05-31T21:48:58.208Z,21.50
2018-05-31T21:53:00.996Z,21.60
2018-05-31T21:57:03.948Z,21.60
2018-05-31T22:01:06.503Z,21.70
2018-05-31T22:05:09.159Z,21.70
2018-05-31T22:09:12.021Z,21.80
2018-05-31T22:13:15.705Z,21.60
2018-05-31T22:17:19.467Z,21.50
2018-05-31T22:21:23.221Z,21.40
2018-05-31T22:25:26.671Z,21.30
2018-05-31T22:29:31.168Z,21.20
2018-05-31T22:33:34.589Z,21.20
2018-05-31T22:37:37.931Z,21.30
2018-05-31T22:41:40.524Z,21.30
2018-05-31T22:45:43.851Z,21.40
2018-05-31T22:49:48.581Z,21.30
2018-05-31T22:53:52.483Z,21.20
2018-05-31T22:57:55.257Z,21.20
2018-05-31T23:01:58.014Z,21.00
2018-05-31T23:06:00.539Z,20.90
2018-05-31T23:10:04.223Z,21.10
2018-05-31T23:14:08.754Z,21.10
2018-05-31T23:18:12.216Z,20.70
2018-05-31T23:22:15.211Z,20.70
2018-05-31T23:26:18.579Z,20.70
2018-05-31T23:30:21.318Z,20.50
2018-05-31T23:34:24.253Z,20.40
2018-05-31T23:38:27.079Z,20.50
2018-05-31T23:42:29.700Z,20.50
2018-05-31T23:46:32.231Z,20.50
2018-05-31T23:50:34.819Z,20.60
2018-05-31T23:54:37.388Z,20.60
2018-05-31T23:58:40.799Z,20.70
